sensor_id;sensor_type;location;lat;lon;timestamp;P1;durP1;ratioP1;P2;durP2;ratioP2
10473;SDS011;5284;50.446;7.904;2023-06-10T00:01:27;23.60;;;9.90;;
10473;SDS011;5284;50.446;7.904;2023-06-10T00:06:32;10.80;;;7.47;;
10473;SDS011;5284;50.446;7.904;2023-06-10T00:11:37;18.42;;;8.40;;
10473;SDS011;5284;50.446;7.904;2023-06-10T00:16:42;13.07;;;8.45;;
10473;SDS011;5284;50.446;7.904;2023-06-10T00:21:46;15.52;;;8.43;;
10473;SDS011;5284;50.446;7.904;2023-06-10T00:26:50;13.52;;;7.72;;
10473;SDS011;5284;50.446;7.904;2023-06-10T00:31:55;14.80;;;8.30;;
10473;SDS011;5284;50.446;7.904;2023-06-10T00:37:00;15.57;;;8.20;;
10473;SDS011;5284;50.446;7.904;2023-06-10T00:42:03;14.48;;;8.80;;
10473;SDS011;5284;50.446;7.904;2023-06-10T00:47:10;17.52;;;8.05;;
10473;SDS011;5284;50.446;7.904;2023-06-10T00:52:13;16.75;;;8.32;;
10473;SDS011;5284;50.446;7.904;2023-06-10T00:57:19;16.05;;;8.63;;
10473;SDS011;5284;50.446;7.904;2023-06-10T01:02:23;15.45;;;8.73;;
10473;SDS011;5284;50.446;7.904;2023-06-10T01:07:28;13.70;;;8.10;;
10473;SDS011;5284;50.446;7.904;2023-06-10T01:12:39;13.27;;;8.80;;
10473;SDS011;5284;50.446;7.904;2023-06-10T01:17:57;16.30;;;8.95;;
10473;SDS011;5284;50.446;7.904;2023-06-10T01:23:06;14.70;;;8.55;;
10473;SDS011;5284;50.446;7.904;2023-06-10T01:28:10;17.60;;;8.23;;
10473;SDS011;5284;50.446;7.904;2023-06-10T01:33:19;15.57;;;9.30;;
10473;SDS011;5284;50.446;7.904;2023-06-10T01:38:31;18.33;;;9.32;;
10473;SDS011;5284;50.446;7.904;2023-06-10T01:43:39;13.05;;;8.48;;
10473;SDS011;5284;50.446;7.904;2023-06-10T01:48:42;28.42;;;9.18;;
10473;SDS011;5284;50.446;7.904;2023-06-10T01:53:46;21.55;;;9.20;;
10473;SDS011;5284;50.446;7.904;2023-06-10T01:58:49;17.15;;;10.40;;
10473;SDS011;5284;50.446;7.904;2023-06-10T02:03:52;18.83;;;8.93;;
10473;SDS011;5284;50.446;7.904;2023-06-10T02:08:56;14.07;;;9.02;;
10473;SDS011;5284;50.446;7.904;2023-06-10T02:14:01;14.48;;;9.18;;
10473;SDS011;5284;50.446;7.904;2023-06-10T02:19:04;15.63;;;9.23;;
10473;SDS011;5284;50.446;7.904;2023-06-10T02:24:10;17.70;;;8.80;;
10473;SDS011;5284;50.446;7.904;2023-06-10T02:29:13;18.15;;;9.23;;
10473;SDS011;5284;50.446;7.904;2023-06-10T02:34:16;12.75;;;9.25;;
10473;SDS011;5284;50.446;7.904;2023-06-10T02:39:21;18.98;;;9.05;;
10473;SDS011;5284;50.446;7.904;2023-06-10T02:44:25;15.25;;;8.77;;
10473;SDS011;5284;50.446;7.904;2023-06-10T02:49:28;16.10;;;9.90;;
10473;SDS011;5284;50.446;7.904;2023-06-10T02:54:34;26.58;;;9.07;;
10473;SDS011;5284;50.446;7.904;2023-06-10T02:59:40;18.00;;;9.97;;
10473;SDS011;5284;50.446;7.904;2023-06-10T03:04:43;15.48;;;10.07;;
10473;SDS011;5284;50.446;7.904;2023-06-10T03:09:51;16.00;;;10.05;;
10473;SDS011;5284;50.446;7.904;2023-06-10T03:14:54;17.55;;;10.48;;
10473;SDS011;5284;50.446;7.904;2023-06-10T03:19:57;16.73;;;9.35;;
10473;SDS011;5284;50.446;7.904;2023-06-10T03:25:02;14.48;;;9.88;;
10473;SDS011;5284;50.446;7.904;2023-06-10T03:30:06;16.35;;;9.80;;
10473;SDS011;5284;50.446;7.904;2023-06-10T03:35:11;15.82;;;10.07;;
10473;SDS011;5284;50.446;7.904;2023-06-10T03:40:17;14.52;;;9.95;;
10473;SDS011;5284;50.446;7.904;2023-06-10T03:45:21;17.95;;;10.52;;
10473;SDS011;5284;50.446;7.904;2023-06-10T03:50:26;19.98;;;10.57;;
10473;SDS011;5284;50.446;7.904;2023-06-10T03:55:30;19.20;;;10.68;;
10473;SDS011;5284;50.446;7.904;2023-06-10T04:00:35;14.90;;;10.13;;
10473;SDS011;5284;50.446;7.904;2023-06-10T04:05:42;16.15;;;10.93;;
10473;SDS011;5284;50.446;7.904;2023-06-10T04:10:47;16.55;;;10.80;;
10473;SDS011;5284;50.446;7.904;2023-06-10T04:15:50;22.98;;;11.70;;
10473;SDS011;5284;50.446;7.904;2023-06-10T04:20:54;17.67;;;10.68;;
10473;SDS011;5284;50.446;7.904;2023-06-10T04:26:00;16.13;;;10.68;;
10473;SDS011;5284;50.446;7.904;2023-06-10T04:31:03;16.77;;;10.55;;
10473;SDS011;5284;50.446;7.904;2023-06-10T04:36:06;19.20;;;11.25;;
10473;SDS011;5284;50.446;7.904;2023-06-10T04:41:12;18.20;;;12.00;;
10473;SDS011;5284;50.446;7.904;2023-06-10T04:46:15;23.45;;;11.60;;
10473;SDS011;5284;50.446;7.904;2023-06-10T04:51:18;17.13;;;11.13;;
10473;SDS011;5284;50.446;7.904;2023-06-10T04:56:22;24.15;;;11.60;;
10473;SDS011;5284;50.446;7.904;2023-06-10T05:01:25;21.55;;;12.15;;
10473;SDS011;5284;50.446;7.904;2023-06-10T05:06:29;22.55;;;10.85;;
10473;SDS011;5284;50.446;7.904;2023-06-10T05:11:34;24.38;;;11.80;;
10473;SDS011;5284;50.446;7.904;2023-06-10T05:16:37;17.70;;;11.38;;
10473;SDS011;5284;50.446;7.904;2023-06-10T05:21:42;24.08;;;10.98;;
10473;SDS011;5284;50.446;7.904;2023-06-10T05:26:46;16.58;;;9.48;;
10473;SDS011;5284;50.446;7.904;2023-06-10T05:31:50;17.70;;;9.70;;
10473;SDS011;5284;50.446;7.904;2023-06-10T05:36:53;15.98;;;9.13;;
10473;SDS011;5284;50.446;7.904;2023-06-10T05:41:57;13.70;;;7.80;;
10473;SDS011;5284;50.446;7.904;2023-06-10T05:47:00;13.65;;;8.15;;
10473;SDS011;5284;50.446;7.904;2023-06-10T05:52:04;11.90;;;7.32;;
10473;SDS011;5284;50.446;7.904;2023-06-10T05:57:09;11.55;;;7.13;;
10473;SDS011;5284;50.446;7.904;2023-06-10T06:02:12;14.43;;;7.45;;
10473;SDS011;5284;50.446;7.904;2023-06-10T06:07:15;13.73;;;6.95;;
10473;SDS011;5284;50.446;7.904;2023-06-10T06:12:19;15.40;;;6.88;;
10473;SDS011;5284;50.446;7.904;2023-06-10T06:17:22;13.32;;;6.93;;
10473;SDS011;5284;50.446;7.904;2023-06-10T06:22:25;11.65;;;6.18;;
10473;SDS011;5284;50.446;7.904;2023-06-10T06:27:29;12.52;;;6.75;;
10473;SDS011;5284;50.446;7.904;2023-06-10T06:32:33;12.00;;;6.00;;
10473;SDS011;5284;50.446;7.904;2023-06-10T06:37:36;12.82;;;6.38;;
10473;SDS011;5284;50.446;7.904;2023-06-10T06:42:58;11.27;;;5.63;;
10473;SDS011;5284;50.446;7.904;2023-06-10T06:48:19;7.90;;;5.95;;
10473;SDS011;5284;50.446;7.904;2023-06-10T06:53:22;12.98;;;6.93;;
10473;SDS011;5284;50.446;7.904;2023-06-10T06:58:27;23.52;;;8.10;;
10473;SDS011;5284;50.446;7.904;2023-06-10T07:03:29;12.13;;;6.53;;
10473;SDS011;5284;50.446;7.904;2023-06-10T07:08:33;12.48;;;6.95;;
10473;SDS011;5284;50.446;7.904;2023-06-10T07:13:37;9.55;;;6.05;;
10473;SDS011;5284;50.446;7.904;2023-06-10T07:18:40;13.57;;;5.75;;
10473;SDS011;5284;50.446;7.904;2023-06-10T07:23:43;18.10;;;6.07;;
10473;SDS011;5284;50.446;7.904;2023-06-10T07:28:48;13.25;;;6.60;;
10473;SDS011;5284;50.446;7.904;2023-06-10T07:33:51;10.70;;;7.07;;
10473;SDS011;5284;50.446;7.904;2023-06-10T07:38:54;9.52;;;5.88;;
10473;SDS011;5284;50.446;7.904;2023-06-10T07:43:58;11.63;;;5.70;;
10473;SDS011;5284;50.446;7.904;2023-06-10T07:49:01;8.68;;;5.53;;
10473;SDS011;5284;50.446;7.904;2023-06-10T07:54:05;10.35;;;6.47;;
10473;SDS011;5284;50.446;7.904;2023-06-10T07:59:09;12.57;;;6.57;;
10473;SDS011;5284;50.446;7.904;2023-06-10T08:04:12;9.70;;;5.63;;
10473;SDS011;5284;50.446;7.904;2023-06-10T08:09:15;19.40;;;5.80;;
10473;SDS011;5284;50.446;7.904;2023-06-10T08:14:21;12.90;;;5.88;;
10473;SDS011;5284;50.446;7.904;2023-06-10T08:19:24;11.82;;;6.07;;
10473;SDS011;5284;50.446;7.904;2023-06-10T08:24:27;12.68;;;6.00;;
10473;SDS011;5284;50.446;7.904;2023-06-10T08:29:31;15.52;;;6.38;;
10473;SDS011;5284;50.446;7.904;2023-06-10T08:34:35;18.42;;;7.10;;
10473;SDS011;5284;50.446;7.904;2023-06-10T08:39:38;12.88;;;7.10;;
10473;SDS011;5284;50.446;7.904;2023-06-10T08:44:42;7.78;;;5.57;;
10473;SDS011;5284;50.446;7.904;2023-06-10T08:49:48;12.82;;;6.55;;
10473;SDS011;5284;50.446;7.904;2023-06-10T08:54:52;12.57;;;6.32;;
10473;SDS011;5284;50.446;7.904;2023-06-10T09:00:00;10.50;;;5.93;;
10473;SDS011;5284;50.446;7.904;2023-06-10T09:05:04;11.98;;;6.60;;
10473;SDS011;5284;50.446;7.904;2023-06-10T09:10:08;13.07;;;5.55;;
10473;SDS011;5284;50.446;7.904;2023-06-10T09:15:14;13.02;;;5.82;;
10473;SDS011;5284;50.446;7.904;2023-06-10T09:20:19;9.93;;;5.70;;
10473;SDS011;5284;50.446;7.904;2023-06-10T09:25:28;11.30;;;6.10;;
10473;SDS011;5284;50.446;7.904;2023-06-10T09:30:39;16.48;;;6.10;;
10473;SDS011;5284;50.446;7.904;2023-06-10T09:35:45;11.23;;;5.63;;
10473;SDS011;5284;50.446;7.904;2023-06-10T09:40:50;10.20;;;5.53;;
10473;SDS011;5284;50.446;7.904;2023-06-10T09:45:56;17.23;;;5.93;;
10473;SDS011;5284;50.446;7.904;2023-06-10T09:50:59;14.80;;;6.45;;
10473;SDS011;5284;50.446;7.904;2023-06-10T09:56:02;6.82;;;5.15;;
10473;SDS011;5284;50.446;7.904;2023-06-10T10:01:11;9.45;;;5.25;;
10473;SDS011;5284;50.446;7.904;2023-06-10T10:06:16;12.68;;;5.43;;
10473;SDS011;5284;50.446;7.904;2023-06-10T10:11:20;15.43;;;4.72;;
10473;SDS011;5284;50.446;7.904;2023-06-10T10:16:32;8.95;;;4.80;;
10473;SDS011;5284;50.446;7.904;2023-06-10T10:21:43;7.05;;;4.47;;
10473;SDS011;5284;50.446;7.904;2023-06-10T10:26:51;10.45;;;4.35;;
10473;SDS011;5284;50.446;7.904;2023-06-10T10:32:01;10.77;;;4.50;;
10473;SDS011;5284;50.446;7.904;2023-06-10T10:37:04;8.18;;;4.50;;
10473;SDS011;5284;50.446;7.904;2023-06-10T10:42:08;8.90;;;4.75;;
10473;SDS011;5284;50.446;7.904;2023-06-10T10:47:13;11.38;;;4.47;;
10473;SDS011;5284;50.446;7.904;2023-06-10T10:52:17;15.07;;;3.90;;
10473;SDS011;5284;50.446;7.904;2023-06-10T10:57:21;10.52;;;4.15;;
10473;SDS011;5284;50.446;7.904;2023-06-10T11:02:36;10.55;;;4.15;;
10473;SDS011;5284;50.446;7.904;2023-06-10T11:07:51;10.27;;;4.15;;
10473;SDS011;5284;50.446;7.904;2023-06-10T11:12:57;9.75;;;4.80;;
10473;SDS011;5284;50.446;7.904;2023-06-10T11:29:08;7.93;;;3.83;;
10473;SDS011;5284;50.446;7.904;2023-06-10T11:34:12;10.07;;;4.43;;
10473;SDS011;5284;50.446;7.904;2023-06-10T11:39:15;13.50;;;3.95;;
10473;SDS011;5284;50.446;7.904;2023-06-10T11:44:20;12.68;;;5.22;;
10473;SDS011;5284;50.446;7.904;2023-06-10T11:49:25;10.90;;;3.88;;
10473;SDS011;5284;50.446;7.904;2023-06-10T11:54:27;14.07;;;4.72;;
10473;SDS011;5284;50.446;7.904;2023-06-10T11:59:30;8.00;;;4.35;;
10473;SDS011;5284;50.446;7.904;2023-06-10T12:04:35;10.63;;;4.32;;
10473;SDS011;5284;50.446;7.904;2023-06-10T12:09:38;6.30;;;4.32;;
10473;SDS011;5284;50.446;7.904;2023-06-10T12:14:53;11.52;;;4.32;;
10473;SDS011;5284;50.446;7.904;2023-06-10T12:19:59;11.35;;;3.88;;
10473;SDS011;5284;50.446;7.904;2023-06-10T12:25:05;5.93;;;4.05;;
10473;SDS011;5284;50.446;7.904;2023-06-10T12:30:10;7.70;;;4.17;;
10473;SDS011;5284;50.446;7.904;2023-06-10T12:35:16;15.70;;;4.88;;
10473;SDS011;5284;50.446;7.904;2023-06-10T12:40:25;10.25;;;3.88;;
10473;SDS011;5284;50.446;7.904;2023-06-10T12:45:29;4.20;;;3.58;;
10473;SDS011;5284;50.446;7.904;2023-06-10T12:50:34;7.30;;;4.38;;
10473;SDS011;5284;50.446;7.904;2023-06-10T13:00:41;7.75;;;4.57;;
10473;SDS011;5284;50.446;7.904;2023-06-10T13:05:45;8.05;;;3.58;;
10473;SDS011;5284;50.446;7.904;2023-06-10T13:10:48;6.78;;;3.90;;
10473;SDS011;5284;50.446;7.904;2023-06-10T13:15:52;10.88;;;3.65;;
10473;SDS011;5284;50.446;7.904;2023-06-10T13:20:56;8.02;;;4.10;;
10473;SDS011;5284;50.446;7.904;2023-06-10T13:25:59;7.53;;;3.42;;
10473;SDS011;5284;50.446;7.904;2023-06-10T13:31:04;6.32;;;3.17;;
10473;SDS011;5284;50.446;7.904;2023-06-10T13:36:10;9.17;;;3.87;;
10473;SDS011;5284;50.446;7.904;2023-06-10T13:41:13;5.65;;;4.10;;
10473;SDS011;5284;50.446;7.904;2023-06-10T13:46:16;7.00;;;3.75;;
10473;SDS011;5284;50.446;7.904;2023-06-10T13:51:21;5.50;;;3.65;;
10473;SDS011;5284;50.446;7.904;2023-06-10T13:56:23;6.47;;;4.10;;
10473;SDS011;5284;50.446;7.904;2023-06-10T14:01:26;7.45;;;3.75;;
10473;SDS011;5284;50.446;7.904;2023-06-10T14:06:31;12.07;;;3.88;;
10473;SDS011;5284;50.446;7.904;2023-06-10T14:11:34;4.72;;;3.15;;
10473;SDS011;5284;50.446;7.904;2023-06-10T14:16:38;5.00;;;3.00;;
10473;SDS011;5284;50.446;7.904;2023-06-10T14:21:45;10.60;;;3.53;;
10473;SDS011;5284;50.446;7.904;2023-06-10T14:26:48;11.15;;;3.60;;
10473;SDS011;5284;50.446;7.904;2023-06-10T14:31:51;7.60;;;3.50;;
10473;SDS011;5284;50.446;7.904;2023-06-10T14:36:55;5.97;;;3.40;;
10473;SDS011;5284;50.446;7.904;2023-06-10T14:41:58;6.25;;;3.70;;
10473;SDS011;5284;50.446;7.904;2023-06-10T14:47:01;5.78;;;3.15;;
10473;SDS011;5284;50.446;7.904;2023-06-10T14:57:09;4.95;;;3.05;;
10473;SDS011;5284;50.446;7.904;2023-06-10T15:02:12;3.83;;;3.00;;
10473;SDS011;5284;50.446;7.904;2023-06-10T15:07:16;4.18;;;3.10;;
10473;SDS011;5284;50.446;7.904;2023-06-10T15:12:19;7.07;;;4.60;;
10473;SDS011;5284;50.446;7.904;2023-06-10T15:17:22;7.80;;;2.88;;
10473;SDS011;5284;50.446;7.904;2023-06-10T15:22:26;4.88;;;3.25;;
10473;SDS011;5284;50.446;7.904;2023-06-10T15:27:29;10.68;;;3.42;;
10473;SDS011;5284;50.446;7.904;2023-06-10T15:32:32;4.70;;;3.40;;
10473;SDS011;5284;50.446;7.904;2023-06-10T15:37:37;7.72;;;3.45;;
10473;SDS011;5284;50.446;7.904;2023-06-10T15:42:40;5.22;;;3.20;;
10473;SDS011;5284;50.446;7.904;2023-06-10T15:47:43;5.78;;;3.70;;
10473;SDS011;5284;50.446;7.904;2023-06-10T15:52:47;5.93;;;4.13;;
10473;SDS011;5284;50.446;7.904;2023-06-10T15:57:50;8.35;;;3.60;;
10473;SDS011;5284;50.446;7.904;2023-06-10T16:02:53;7.50;;;4.05;;
10473;SDS011;5284;50.446;7.904;2023-06-10T16:07:58;5.43;;;3.25;;
10473;SDS011;5284;50.446;7.904;2023-06-10T16:13:03;8.88;;;3.28;;
10473;SDS011;5284;50.446;7.904;2023-06-10T16:18:07;5.45;;;3.40;;
10473;SDS011;5284;50.446;7.904;2023-06-10T16:23:11;6.80;;;3.97;;
10473;SDS011;5284;50.446;7.904;2023-06-10T16:28:14;7.18;;;3.28;;
10473;SDS011;5284;50.446;7.904;2023-06-10T16:33:17;5.30;;;3.10;;
10473;SDS011;5284;50.446;7.904;2023-06-10T16:38:21;3.60;;;2.90;;
10473;SDS011;5284;50.446;7.904;2023-06-10T16:43:24;3.63;;;2.40;;
10473;SDS011;5284;50.446;7.904;2023-06-10T16:48:28;6.45;;;3.50;;
10473;SDS011;5284;50.446;7.904;2023-06-10T16:58:35;5.07;;;3.42;;
10473;SDS011;5284;50.446;7.904;2023-06-10T17:03:38;10.93;;;6.30;;
10473;SDS011;5284;50.446;7.904;2023-06-10T17:08:43;5.50;;;4.20;;
10473;SDS011;5284;50.446;7.904;2023-06-10T17:13:46;6.47;;;4.07;;
10473;SDS011;5284;50.446;7.904;2023-06-10T17:23:53;10.55;;;3.08;;
10473;SDS011;5284;50.446;7.904;2023-06-10T17:28:56;5.53;;;3.35;;
10473;SDS011;5284;50.446;7.904;2023-06-10T17:33:59;4.17;;;2.90;;
10473;SDS011;5284;50.446;7.904;2023-06-10T17:39:03;6.00;;;3.33;;
10473;SDS011;5284;50.446;7.904;2023-06-10T17:44:06;10.27;;;3.58;;
10473;SDS011;5284;50.446;7.904;2023-06-10T17:49:09;4.35;;;3.17;;
10473;SDS011;5284;50.446;7.904;2023-06-10T17:54:13;6.07;;;3.60;;
10473;SDS011;5284;50.446;7.904;2023-06-10T17:59:16;6.87;;;3.53;;
10473;SDS011;5284;50.446;7.904;2023-06-10T18:04:19;12.45;;;3.95;;
10473;SDS011;5284;50.446;7.904;2023-06-10T18:09:24;14.15;;;4.82;;
10473;SDS011;5284;50.446;7.904;2023-06-10T18:14:27;7.43;;;4.20;;
10473;SDS011;5284;50.446;7.904;2023-06-10T18:19:30;4.95;;;3.45;;
10473;SDS011;5284;50.446;7.904;2023-06-10T18:24:34;7.40;;;3.90;;
10473;SDS011;5284;50.446;7.904;2023-06-10T18:29:37;9.35;;;4.55;;
10473;SDS011;5284;50.446;7.904;2023-06-10T18:34:40;11.80;;;5.63;;
10473;SDS011;5284;50.446;7.904;2023-06-10T18:39:45;10.70;;;5.93;;
10473;SDS011;5284;50.446;7.904;2023-06-10T18:44:48;8.48;;;5.05;;
10473;SDS011;5284;50.446;7.904;2023-06-10T18:49:52;10.32;;;4.90;;
10473;SDS011;5284;50.446;7.904;2023-06-10T18:54:56;12.80;;;4.97;;
10473;SDS011;5284;50.446;7.904;2023-06-10T18:59:59;8.88;;;5.28;;
10473;SDS011;5284;50.446;7.904;2023-06-10T19:05:02;12.48;;;6.07;;
10473;SDS011;5284;50.446;7.904;2023-06-10T19:10:11;9.02;;;5.75;;
10473;SDS011;5284;50.446;7.904;2023-06-10T19:15:14;10.30;;;6.07;;
10473;SDS011;5284;50.446;7.904;2023-06-10T19:20:17;12.30;;;5.78;;
10473;SDS011;5284;50.446;7.904;2023-06-10T19:25:22;10.95;;;5.97;;
10473;SDS011;5284;50.446;7.904;2023-06-10T19:30:24;11.35;;;6.43;;
10473;SDS011;5284;50.446;7.904;2023-06-10T19:35:27;11.02;;;7.00;;
10473;SDS011;5284;50.446;7.904;2023-06-10T19:40:31;8.88;;;6.32;;
10473;SDS011;5284;50.446;7.904;2023-06-10T19:45:34;10.60;;;6.50;;
10473;SDS011;5284;50.446;7.904;2023-06-10T19:50:37;11.57;;;6.38;;
10473;SDS011;5284;50.446;7.904;2023-06-10T19:55:41;10.18;;;6.43;;
10473;SDS011;5284;50.446;7.904;2023-06-10T20:00:44;13.90;;;7.50;;
10473;SDS011;5284;50.446;7.904;2023-06-10T20:05:47;20.00;;;6.32;;
10473;SDS011;5284;50.446;7.904;2023-06-10T20:10:52;10.35;;;6.40;;
10473;SDS011;5284;50.446;7.904;2023-06-10T20:15:55;11.30;;;6.85;;
10473;SDS011;5284;50.446;7.904;2023-06-10T20:20:58;11.77;;;6.20;;
10473;SDS011;5284;50.446;7.904;2023-06-10T20:26:02;13.05;;;6.82;;
10473;SDS011;5284;50.446;7.904;2023-06-10T20:31:05;13.32;;;6.80;;
10473;SDS011;5284;50.446;7.904;2023-06-10T20:36:08;12.20;;;7.20;;
10473;SDS011;5284;50.446;7.904;2023-06-10T20:41:12;12.23;;;7.45;;
10473;SDS011;5284;50.446;7.904;2023-06-10T20:46:15;11.43;;;7.00;;
10473;SDS011;5284;50.446;7.904;2023-06-10T20:51:18;11.63;;;7.63;;
10473;SDS011;5284;50.446;7.904;2023-06-10T20:56:22;11.90;;;7.75;;
10473;SDS011;5284;50.446;7.904;2023-06-10T21:01:25;13.45;;;6.53;;
10473;SDS011;5284;50.446;7.904;2023-06-10T21:06:28;12.43;;;8.05;;
10473;SDS011;5284;50.446;7.904;2023-06-10T21:11:33;10.57;;;7.55;;
10473;SDS011;5284;50.446;7.904;2023-06-10T21:16:36;13.98;;;7.40;;
10473;SDS011;5284;50.446;7.904;2023-06-10T21:21:40;12.63;;;8.00;;
10473;SDS011;5284;50.446;7.904;2023-06-10T21:26:44;9.68;;;7.35;;
10473;SDS011;5284;50.446;7.904;2023-06-10T21:31:48;11.32;;;7.55;;
10473;SDS011;5284;50.446;7.904;2023-06-10T21:36:51;11.88;;;7.60;;
10473;SDS011;5284;50.446;7.904;2023-06-10T21:41:55;11.23;;;6.95;;
10473;SDS011;5284;50.446;7.904;2023-06-10T21:46:58;14.80;;;7.15;;
10473;SDS011;5284;50.446;7.904;2023-06-10T21:52:01;11.98;;;7.55;;
10473;SDS011;5284;50.446;7.904;2023-06-10T21:57:05;16.33;;;7.53;;
10473;SDS011;5284;50.446;7.904;2023-06-10T22:02:09;14.82;;;6.65;;
10473;SDS011;5284;50.446;7.904;2023-06-10T22:07:11;9.68;;;7.28;;
10473;SDS011;5284;50.446;7.904;2023-06-10T22:12:16;16.70;;;7.40;;
10473;SDS011;5284;50.446;7.904;2023-06-10T22:17:19;13.68;;;8.60;;
10473;SDS011;5284;50.446;7.904;2023-06-10T22:22:22;9.60;;;6.72;;
10473;SDS011;5284;50.446;7.904;2023-06-10T22:27:27;11.48;;;7.63;;
10473;SDS011;5284;50.446;7.904;2023-06-10T22:32:30;12.50;;;6.90;;
10473;SDS011;5284;50.446;7.904;2023-06-10T22:37:33;14.50;;;8.23;;
10473;SDS011;5284;50.446;7.904;2023-06-10T22:42:38;13.85;;;7.75;;
10473;SDS011;5284;50.446;7.904;2023-06-10T22:47:41;10.77;;;7.43;;
10473;SDS011;5284;50.446;7.904;2023-06-10T22:52:44;14.85;;;7.13;;
10473;SDS011;5284;50.446;7.904;2023-06-10T22:57:52;11.43;;;6.88;;
10473;SDS011;5284;50.446;7.904;2023-06-10T23:02:56;13.02;;;7.53;;
10473;SDS011;5284;50.446;7.904;2023-06-10T23:07:59;8.98;;;7.35;;
10473;SDS011;5284;50.446;7.904;2023-06-10T23:13:03;14.05;;;8.32;;
10473;SDS011;5284;50.446;7.904;2023-06-10T23:18:06;13.38;;;7.35;;
10473;SDS011;5284;50.446;7.904;2023-06-10T23:23:10;13.60;;;6.78;;
10473;SDS011;5284;50.446;7.904;2023-06-10T23:28:16;13.57;;;6.43;;
10473;SDS011;5284;50.446;7.904;2023-06-10T23:33:18;15.50;;;7.38;;
10473;SDS011;5284;50.446;7.904;2023-06-10T23:38:21;10.82;;;7.53;;
10473;SDS011;5284;50.446;7.904;2023-06-10T23:43:26;15.40;;;8.23;;
10473;SDS011;5284;50.446;7.904;2023-06-10T23:48:29;13.35;;;7.90;;
10473;SDS011;5284;50.446;7.904;2023-06-10T23:53:32;21.40;;;8.25;;
10473;SDS011;5284;50.446;7.904;2023-06-10T23:58:37;13.05;;;7.57;;
